createdAt,value
2023-10-15T00:00:26.379Z,85.45
2023-10-15T00:02:53.592Z,84.01
2023-10-15T00:05:22.774Z,83.93
2023-10-15T00:07:50.756Z,84.10
2023-10-15T00:10:19.967Z,84.65
2023-10-15T00:12:48.235Z,82.90
2023-10-15T00:15:16.807Z,82.46
2023-10-15T00:17:44.061Z,82.43
2023-10-15T00:20:20.958Z,82.60
2023-10-15T00:22:48.655Z,83.03
2023-10-15T00:25:15.789Z,83.45
2023-10-15T00:27:43.544Z,84.19
2023-10-15T00:30:20.469Z,84.79
2023-10-15T00:32:47.932Z,84.22
2023-10-15T00:35:15.558Z,85.64
2023-10-15T00:37:42.333Z,85.98
2023-10-15T00:40:17.455Z,86.44
2023-10-15T00:42:46.026Z,86.13
2023-10-15T00:45:16.010Z,86.33
2023-10-15T00:47:43.937Z,85.03
2023-10-15T00:50:10.867Z,86.03
2023-10-15T00:52:43.544Z,87.32
2023-10-15T00:55:18.135Z,85.71
2023-10-15T00:57:49.057Z,86.63
2023-10-15T01:00:34.743Z,85.55
2023-10-15T01:03:07.536Z,85.81
2023-10-15T01:05:46.029Z,86.61
2023-10-15T01:08:17.510Z,86.02
2023-10-15T01:10:44.724Z,86.93
2023-10-15T01:13:22.463Z,86.00
2023-10-15T01:15:54.084Z,85.78
2023-10-15T01:18:20.423Z,86.41
2023-10-15T01:20:46.917Z,86.49
2023-10-15T01:23:33.208Z,86.66
2023-10-15T01:26:01.025Z,87.63
2023-10-15T01:28:40.227Z,88.14
2023-10-15T01:31:07.362Z,87.39
2023-10-15T01:33:47.343Z,86.00
2023-10-15T01:36:19.335Z,85.64
2023-10-15T01:38:45.745Z,86.72
2023-10-15T01:41:20.431Z,85.89
2023-10-15T01:43:51.772Z,85.32
2023-10-15T01:46:37.023Z,86.49
2023-10-15T01:49:07.988Z,84.57
2023-10-15T01:51:40.414Z,85.46
2023-10-15T01:54:10.537Z,85.52
2023-10-15T01:56:46.138Z,86.29
2023-10-15T01:59:12.873Z,87.35
2023-10-15T02:01:42.344Z,89.01
2023-10-15T02:04:28.003Z,86.71
2023-10-15T02:06:54.769Z,87.53
2023-10-15T02:09:24.375Z,86.31
2023-10-15T02:11:55.155Z,87.41
2023-10-15T02:14:28.449Z,86.38
2023-10-15T02:16:55.348Z,86.59
2023-10-15T02:19:42.498Z,87.58
2023-10-15T02:22:13.910Z,85.96
2023-10-15T02:24:48.439Z,85.19
2023-10-15T02:27:26.719Z,87.60
2023-10-15T02:29:53.422Z,86.99
2023-10-15T02:32:26.987Z,84.29
2023-10-15T02:34:55.088Z,85.59
2023-10-15T02:37:25.119Z,85.86
2023-10-15T02:39:51.796Z,85.24
2023-10-15T02:42:23.121Z,85.35
2023-10-15T02:44:52.478Z,84.90
2023-10-15T02:47:42.668Z,85.49
2023-10-15T02:50:14.724Z,84.82
2023-10-15T02:52:47.815Z,85.71
2023-10-15T02:55:17.500Z,86.76
2023-10-15T02:57:45.047Z,86.50
2023-10-15T03:00:32.075Z,86.33
2023-10-15T03:02:59.414Z,86.81
2023-10-15T03:05:31.667Z,87.92
2023-10-15T03:08:01.237Z,86.27
2023-10-15T03:10:45.945Z,86.07
2023-10-15T03:13:15.375Z,88.01
2023-10-15T03:15:49.989Z,87.30
2023-10-15T03:18:23.106Z,85.78
2023-10-15T03:20:50.967Z,85.12
2023-10-15T03:23:18.375Z,86.93
2023-10-15T03:25:44.903Z,85.67
2023-10-15T03:28:13.727Z,85.47
2023-10-15T03:30:45.571Z,85.07
2023-10-15T03:33:14.996Z,86.09
2023-10-15T03:35:46.686Z,84.61
2023-10-15T03:38:16.512Z,83.90
2023-10-15T03:40:51.114Z,84.90
2023-10-15T03:43:21.611Z,84.44
2023-10-15T03:45:54.911Z,85.46
2023-10-15T03:48:23.380Z,85.54
2023-10-15T03:50:56.438Z,86.16
2023-10-15T03:53:29.545Z,85.71
2023-10-15T03:55:57.703Z,85.76
2023-10-15T03:58:24.707Z,84.64
2023-10-15T04:01:03.490Z,83.93
2023-10-15T04:03:29.985Z,85.43
2023-10-15T04:06:02.495Z,84.95
2023-10-15T04:08:32.108Z,84.40
2023-10-15T04:10:59.561Z,84.91
2023-10-15T04:13:28.985Z,85.01
2023-10-15T04:15:56.625Z,84.59
2023-10-15T04:18:26.556Z,84.12
2023-10-15T04:20:54.537Z,84.81
2023-10-15T04:23:33.032Z,84.82
2023-10-15T04:26:02.199Z,85.22
2023-10-15T04:28:29.576Z,86.36
2023-10-15T04:30:57.319Z,89.84
2023-10-15T04:33:27.654Z,89.06
2023-10-15T04:35:54.167Z,88.31
2023-10-15T04:38:23.442Z,86.40
2023-10-15T04:40:59.053Z,87.14
2023-10-15T04:43:29.045Z,89.12
2023-10-15T04:46:03.663Z,89.63
2023-10-15T04:48:33.557Z,87.18
2023-10-15T04:51:13.174Z,87.24
2023-10-15T04:53:46.084Z,87.40
2023-10-15T04:56:13.766Z,86.85
2023-10-15T04:58:40.574Z,87.27
2023-10-15T05:01:08.404Z,88.87
2023-10-15T05:03:36.012Z,87.33
2023-10-15T05:06:03.731Z,87.07
2023-10-15T05:08:30.233Z,87.28
2023-10-15T05:10:57.043Z,88.81
2023-10-15T05:13:25.881Z,88.74
2023-10-15T05:15:52.784Z,89.08
2023-10-15T05:18:20.360Z,89.79
2023-10-15T05:20:51.586Z,88.97
2023-10-15T05:23:19.224Z,89.21
2023-10-15T05:25:45.667Z,88.56
2023-10-15T05:28:15.689Z,86.75
2023-10-15T05:30:42.918Z,87.81
2023-10-15T05:33:09.492Z,87.25
2023-10-15T05:35:35.953Z,88.88
2023-10-15T05:38:02.378Z,89.05
2023-10-15T05:40:30.577Z,88.50
2023-10-15T05:42:56.977Z,88.67
2023-10-15T05:45:25.725Z,88.59
2023-10-15T05:47:52.202Z,89.07
2023-10-15T05:50:18.926Z,87.74
2023-10-15T05:52:46.678Z,89.04
2023-10-15T05:55:13.402Z,88.79
2023-10-15T05:57:39.762Z,88.87
2023-10-15T06:00:25.333Z,88.02
2023-10-15T06:02:52.048Z,90.15
2023-10-15T06:05:18.547Z,88.77
2023-10-15T06:07:45.603Z,86.88
2023-10-15T06:10:15.353Z,88.32
2023-10-15T06:12:42.771Z,88.36
2023-10-15T06:15:10.586Z,89.08
2023-10-15T06:17:37.111Z,89.82
2023-10-15T06:20:16.076Z,88.65
2023-10-15T06:22:47.809Z,88.67
2023-10-15T06:25:15.365Z,87.04
2023-10-15T06:27:42.150Z,87.52
2023-10-15T06:30:15.664Z,87.21
2023-10-15T06:32:45.999Z,88.26
2023-10-15T06:35:19.172Z,87.66
2023-10-15T06:37:56.610Z,87.58
2023-10-15T06:40:24.334Z,87.50
2023-10-15T06:42:52.781Z,87.59
2023-10-15T06:45:22.825Z,87.66
2023-10-15T06:47:53.398Z,87.67
2023-10-15T06:50:24.747Z,86.44
2023-10-15T06:52:53.710Z,87.05
2023-10-15T06:55:23.413Z,87.42
2023-10-15T06:57:51.031Z,86.70
2023-10-15T07:00:24.235Z,86.64
2023-10-15T07:02:55.075Z,87.24
2023-10-15T07:05:24.968Z,87.51
2023-10-15T07:07:51.785Z,87.95
2023-10-15T07:10:18.607Z,88.09
2023-10-15T07:12:51.808Z,87.92
2023-10-15T07:15:21.572Z,87.36
2023-10-15T07:17:50.582Z,86.97
2023-10-15T07:20:22.365Z,86.67
2023-10-15T07:22:50.400Z,88.18
2023-10-15T07:25:18.311Z,87.69
2023-10-15T07:27:49.824Z,88.17
2023-10-15T07:30:18.161Z,87.25
2023-10-15T07:32:45.937Z,87.14
2023-10-15T07:35:14.835Z,88.34
2023-10-15T07:37:45.723Z,86.15
2023-10-15T07:40:18.164Z,86.91
2023-10-15T07:42:45.998Z,86.26
2023-10-15T07:45:13.294Z,86.79
2023-10-15T07:47:39.996Z,86.99
2023-10-15T07:50:08.865Z,86.43
2023-10-15T07:52:36.136Z,85.19
2023-10-15T07:55:02.886Z,85.30
2023-10-15T07:57:29.292Z,85.79
2023-10-15T07:59:58.782Z,86.54
2023-10-15T08:02:28.239Z,87.42
2023-10-15T08:04:58.404Z,84.62
2023-10-15T08:07:25.149Z,83.05
2023-10-15T08:09:51.510Z,84.39
2023-10-15T08:12:18.085Z,83.28
2023-10-15T08:14:46.124Z,83.95
2023-10-15T08:17:14.913Z,82.45
2023-10-15T08:19:41.491Z,81.96
2023-10-15T08:22:09.872Z,82.61
2023-10-15T08:24:39.233Z,81.33
2023-10-15T08:27:07.042Z,82.12
2023-10-15T08:29:33.415Z,81.22
2023-10-15T08:32:02.730Z,82.37
2023-10-15T08:34:29.446Z,81.45
2023-10-15T08:36:55.806Z,81.97
2023-10-15T08:39:24.923Z,82.09
2023-10-15T08:41:52.970Z,82.03
2023-10-15T08:44:21.513Z,80.89
2023-10-15T08:46:50.873Z,80.34
2023-10-15T08:49:17.876Z,80.74
2023-10-15T08:51:44.416Z,80.22
2023-10-15T08:54:13.155Z,79.60
2023-10-15T08:56:44.649Z,80.36
2023-10-15T08:59:11.855Z,80.57
2023-10-15T09:01:38.866Z,79.83
2023-10-15T09:04:05.806Z,80.65
2023-10-15T09:06:32.574Z,81.35
2023-10-15T09:09:01.076Z,81.28
2023-10-15T09:11:28.721Z,80.42
2023-10-15T09:13:55.435Z,79.61
2023-10-15T09:16:22.654Z,78.02
2023-10-15T09:18:51.319Z,78.10
2023-10-15T09:21:26.415Z,75.92
2023-10-15T09:23:53.826Z,76.73
2023-10-15T09:26:21.221Z,74.50
2023-10-15T09:28:47.646Z,75.46
2023-10-15T09:31:14.125Z,75.74
2023-10-15T09:33:41.243Z,76.05
2023-10-15T09:36:08.319Z,74.45
2023-10-15T09:38:38.296Z,76.53
2023-10-15T09:41:06.958Z,77.81
2023-10-15T09:43:37.392Z,76.87
2023-10-15T09:46:05.026Z,76.66
2023-10-15T09:48:35.010Z,76.36
2023-10-15T09:51:01.369Z,76.71
2023-10-15T09:53:30.625Z,74.25
2023-10-15T09:56:00.373Z,74.89
2023-10-15T09:58:27.219Z,74.66
2023-10-15T10:01:10.183Z,74.53
2023-10-15T10:03:38.817Z,75.02
2023-10-15T10:06:13.711Z,74.76
2023-10-15T10:09:06.061Z,73.48
2023-10-15T10:12:04.589Z,73.09
2023-10-15T10:14:57.143Z,72.53
2023-10-15T10:17:24.077Z,72.76
2023-10-15T10:19:54.064Z,75.47
2023-10-15T10:22:27.951Z,75.49
2023-10-15T10:24:55.158Z,74.75
2023-10-15T10:27:21.554Z,74.15
2023-10-15T10:29:54.755Z,72.64
2023-10-15T10:32:24.133Z,72.80
2023-10-15T10:35:19.727Z,70.76
2023-10-15T10:38:11.817Z,70.43
2023-10-15T10:40:49.273Z,71.40
2023-10-15T10:43:20.421Z,70.06
2023-10-15T10:45:53.590Z,69.38
2023-10-15T10:48:27.067Z,68.51
2023-10-15T10:51:08.851Z,68.23
2023-10-15T10:53:35.761Z,66.39
2023-10-15T10:56:04.932Z,66.47
2023-10-15T10:58:31.480Z,66.28
2023-10-15T11:00:58.455Z,66.79
2023-10-15T11:03:24.849Z,68.06
2023-10-15T11:05:53.325Z,68.78
2023-10-15T11:08:20.391Z,65.95
2023-10-15T11:10:46.965Z,66.30
2023-10-15T11:13:13.721Z,67.71
2023-10-15T11:15:40.140Z,66.49
2023-10-15T11:18:10.018Z,64.09
2023-10-15T11:20:37.167Z,63.08
2023-10-15T11:23:07.118Z,61.98
2023-10-15T11:25:35.900Z,62.07
2023-10-15T11:28:05.377Z,59.30
2023-10-15T11:30:32.830Z,57.56
2023-10-15T11:33:00.891Z,57.72
2023-10-15T11:35:33.866Z,58.93
2023-10-15T11:38:08.789Z,58.34
2023-10-15T11:40:39.770Z,59.29
2023-10-15T11:43:16.340Z,59.66
2023-10-15T11:45:42.979Z,60.81
2023-10-15T11:48:15.480Z,67.64
2023-10-15T11:50:42.994Z,69.82
2023-10-15T11:53:21.357Z,71.05
2023-10-15T11:55:48.800Z,72.85
2023-10-15T11:58:17.663Z,72.06
2023-10-15T12:00:49.114Z,72.46
2023-10-15T12:03:19.838Z,70.66
2023-10-15T12:05:46.427Z,69.88
2023-10-15T12:08:17.789Z,70.43
2023-10-15T12:10:44.324Z,70.02
2023-10-15T12:13:12.776Z,68.47
2023-10-15T12:15:39.499Z,68.01
2023-10-15T12:18:06.049Z,67.41
2023-10-15T12:20:32.503Z,65.67
2023-10-15T12:22:58.983Z,65.56
2023-10-15T12:25:25.605Z,65.94
2023-10-15T12:27:52.380Z,66.24
2023-10-15T12:30:25.029Z,66.84
2023-10-15T12:32:52.679Z,66.12
2023-10-15T12:35:20.651Z,65.69
2023-10-15T12:37:48.196Z,65.58
2023-10-15T12:40:22.540Z,64.28
2023-10-15T12:42:49.219Z,63.03
2023-10-15T12:45:15.633Z,61.99
2023-10-15T12:47:42.117Z,61.87
2023-10-15T12:50:18.093Z,63.07
2023-10-15T12:52:48.296Z,61.84
2023-10-15T12:55:21.189Z,62.39
2023-10-15T12:57:48.413Z,62.34
2023-10-15T13:00:22.510Z,61.46
2023-10-15T13:02:50.970Z,60.81
2023-10-15T13:05:26.716Z,61.82
2023-10-15T13:07:54.928Z,68.73
2023-10-15T13:10:22.079Z,70.75
2023-10-15T13:12:49.796Z,72.48
2023-10-15T13:15:18.527Z,72.78
2023-10-15T13:17:46.040Z,72.93
2023-10-15T13:20:12.939Z,73.37
2023-10-15T13:22:39.614Z,72.36
2023-10-15T13:25:07.052Z,71.21
2023-10-15T13:27:34.864Z,70.09
2023-10-15T13:30:02.024Z,69.54
2023-10-15T13:32:28.959Z,68.87
2023-10-15T13:34:55.382Z,67.56
2023-10-15T13:37:22.120Z,66.88
2023-10-15T13:39:51.051Z,68.39
2023-10-15T13:42:17.737Z,68.06
2023-10-15T13:44:44.088Z,68.60
2023-10-15T13:47:11.468Z,68.66
2023-10-15T13:49:38.390Z,68.47
2023-10-15T13:52:07.983Z,68.71
2023-10-15T13:54:34.867Z,68.56
2023-10-15T13:57:01.281Z,69.12
2023-10-15T13:59:27.950Z,68.61
2023-10-15T14:01:58.960Z,68.40
2023-10-15T14:04:25.735Z,68.36
2023-10-15T14:06:53.356Z,66.92
2023-10-15T14:09:19.771Z,67.34
2023-10-15T14:11:46.122Z,68.52
2023-10-15T14:14:12.526Z,68.16
2023-10-15T14:16:40.115Z,69.09
2023-10-15T14:19:06.601Z,70.15
2023-10-15T14:21:33.116Z,72.64
2023-10-15T14:23:59.504Z,73.74
2023-10-15T14:26:25.884Z,75.36
2023-10-15T14:28:55.194Z,75.36
2023-10-15T14:31:22.973Z,74.61
2023-10-15T14:33:49.367Z,74.91
2023-10-15T14:36:15.983Z,74.49
2023-10-15T14:38:42.394Z,75.42
2023-10-15T14:41:09.402Z,73.72
2023-10-15T14:43:37.960Z,74.58
2023-10-15T14:46:05.683Z,75.25
2023-10-15T14:48:32.049Z,74.30
2023-10-15T14:51:01.575Z,74.12
2023-10-15T14:53:30.823Z,74.10
2023-10-15T14:55:57.256Z,74.53
2023-10-15T14:58:23.621Z,73.70
2023-10-15T15:00:49.999Z,74.21
2023-10-15T15:03:22.795Z,75.00
2023-10-15T15:05:49.593Z,75.51
2023-10-15T15:08:16.082Z,74.89
2023-10-15T15:10:42.563Z,74.26
2023-10-15T15:13:09.358Z,74.45
2023-10-15T15:15:35.793Z,73.33
2023-10-15T15:18:02.262Z,74.08
2023-10-15T15:20:29.296Z,74.06
2023-10-15T15:22:55.986Z,73.45
2023-10-15T15:25:24.007Z,73.06
2023-10-15T15:27:50.361Z,73.59
2023-10-15T15:30:19.165Z,73.39
2023-10-15T15:32:47.433Z,72.34
2023-10-15T15:35:14.051Z,72.36
2023-10-15T15:37:41.347Z,72.24
2023-10-15T15:40:08.672Z,72.35
2023-10-15T15:42:35.352Z,73.07
2023-10-15T15:45:02.334Z,74.41
2023-10-15T15:47:29.023Z,72.64
2023-10-15T15:49:55.542Z,73.74
2023-10-15T15:52:21.998Z,73.87
2023-10-15T15:54:48.387Z,74.06
2023-10-15T15:57:14.821Z,73.86
2023-10-15T15:59:41.337Z,73.60
2023-10-15T16:02:08.145Z,73.96
2023-10-15T16:04:34.787Z,74.66
2023-10-15T16:07:01.487Z,74.06
2023-10-15T16:09:27.978Z,74.17
2023-10-15T16:11:55.548Z,73.94
2023-10-15T16:14:21.994Z,74.30
2023-10-15T16:16:48.484Z,73.79
2023-10-15T16:19:15.393Z,74.06
2023-10-15T16:21:41.724Z,73.72
2023-10-15T16:24:08.968Z,73.26
2023-10-15T16:26:36.198Z,74.03
2023-10-15T16:29:02.588Z,74.47
2023-10-15T16:31:29.321Z,77.20
2023-10-15T16:33:55.787Z,77.64
2023-10-15T16:36:22.162Z,78.59
2023-10-15T16:38:48.574Z,79.06
2023-10-15T16:41:16.843Z,79.12
2023-10-15T16:43:43.292Z,79.85
2023-10-15T16:46:10.047Z,81.49
2023-10-15T16:48:36.534Z,81.21
2023-10-15T16:51:13.767Z,80.10
2023-10-15T16:53:44.970Z,79.33
2023-10-15T16:56:11.481Z,79.08
2023-10-15T16:58:40.287Z,78.94
2023-10-15T17:01:06.896Z,79.13
2023-10-15T17:03:33.281Z,78.93
2023-10-15T17:05:59.660Z,79.07
2023-10-15T17:08:25.996Z,78.14
2023-10-15T17:10:52.906Z,79.15
2023-10-15T17:13:19.462Z,77.41
2023-10-15T17:15:45.823Z,77.44
2023-10-15T17:18:12.246Z,78.42
2023-10-15T17:20:38.694Z,76.68
2023-10-15T17:23:06.098Z,76.47
2023-10-15T17:25:32.805Z,75.93
2023-10-15T17:27:59.178Z,76.33
2023-10-15T17:30:25.633Z,77.17
2023-10-15T17:32:52.322Z,76.87
2023-10-15T17:35:18.766Z,76.43
2023-10-15T17:37:45.252Z,77.73
2023-10-15T17:40:12.226Z,77.00
2023-10-15T17:42:42.092Z,76.62
2023-10-15T17:45:09.029Z,76.85
2023-10-15T17:47:35.717Z,77.50
2023-10-15T17:50:02.389Z,77.22
2023-10-15T17:52:28.804Z,77.15
2023-10-15T17:54:55.215Z,77.13
2023-10-15T17:57:21.623Z,78.43
2023-10-15T17:59:48.269Z,78.23
2023-10-15T18:02:14.600Z,81.01
2023-10-15T18:04:41.049Z,80.12
2023-10-15T18:07:07.460Z,81.73
2023-10-15T18:09:35.153Z,80.66
2023-10-15T18:12:02.006Z,80.06
2023-10-15T18:14:28.725Z,78.38
2023-10-15T18:16:55.155Z,78.37
2023-10-15T18:19:21.548Z,77.81
2023-10-15T18:21:48.508Z,78.07
2023-10-15T18:24:15.330Z,77.40
2023-10-15T18:26:41.964Z,77.03
2023-10-15T18:29:08.356Z,76.55
2023-10-15T18:31:36.006Z,77.33
2023-10-15T18:34:02.358Z,76.81
2023-10-15T18:36:28.914Z,75.46
2023-10-15T18:38:56.983Z,75.92
2023-10-15T18:41:23.391Z,76.87
2023-10-15T18:43:50.290Z,76.83
2023-10-15T18:46:17.098Z,76.34
2023-10-15T18:48:43.565Z,77.40
2023-10-15T18:51:34.609Z,76.53
2023-10-15T18:53:58.700Z,77.13
2023-10-15T18:56:25.308Z,76.66
2023-10-15T18:58:52.784Z,78.28
2023-10-15T19:01:22.639Z,78.39
2023-10-15T19:03:49.675Z,79.12
2023-10-15T19:06:16.288Z,78.30
2023-10-15T19:08:42.794Z,79.65
2023-10-15T19:11:14.453Z,78.83
2023-10-15T19:13:41.699Z,79.47
2023-10-15T19:16:08.261Z,79.49
2023-10-15T19:18:34.791Z,78.16
2023-10-15T19:21:01.479Z,78.44
2023-10-15T19:23:27.923Z,78.34
2023-10-15T19:26:04.281Z,78.47
2023-10-15T19:28:30.716Z,77.91
2023-10-15T19:30:57.098Z,77.59
2023-10-15T19:33:24.202Z,77.36
2023-10-15T19:35:50.852Z,77.55
2023-10-15T19:38:17.621Z,77.40
2023-10-15T19:40:43.974Z,77.93
2023-10-15T19:43:10.331Z,78.34
2023-10-15T19:45:36.740Z,77.38
2023-10-15T19:48:06.200Z,77.22
2023-10-15T19:50:32.828Z,78.24
2023-10-15T19:53:04.447Z,78.82
2023-10-15T19:55:32.148Z,78.36
2023-10-15T19:57:59.927Z,78.19
2023-10-15T20:00:29.425Z,78.46
2023-10-15T20:02:56.541Z,78.99
2023-10-15T20:05:23.154Z,78.81
2023-10-15T20:07:49.655Z,78.53
2023-10-15T20:10:16.453Z,79.22
2023-10-15T20:12:47.603Z,80.14
2023-10-15T20:15:18.554Z,79.47
2023-10-15T20:17:45.780Z,79.85
2023-10-15T20:20:13.877Z,78.91
2023-10-15T20:22:41.411Z,78.86
2023-10-15T20:25:12.957Z,79.49
2023-10-15T20:27:41.042Z,78.69
2023-10-15T20:30:11.957Z,79.21
2023-10-15T20:32:54.125Z,78.88
2023-10-15T20:35:21.865Z,78.25
2023-10-15T20:37:49.201Z,78.45
2023-10-15T20:40:15.650Z,79.12
2023-10-15T20:42:46.791Z,78.78
2023-10-15T20:45:17.805Z,78.47
2023-10-15T20:47:45.418Z,78.51
2023-10-15T20:50:15.585Z,78.86
2023-10-15T20:52:46.077Z,78.77
2023-10-15T20:55:13.587Z,79.25
2023-10-15T20:57:41.226Z,78.37
2023-10-15T21:00:13.037Z,78.45
2023-10-15T21:02:43.683Z,78.75
2023-10-15T21:05:11.556Z,78.88
2023-10-15T21:07:40.035Z,79.68
2023-10-15T21:10:07.614Z,79.14
2023-10-15T21:12:35.022Z,79.40
2023-10-15T21:15:01.457Z,79.83
2023-10-15T21:17:27.844Z,79.73
2023-10-15T21:19:57.134Z,80.61
2023-10-15T21:22:23.673Z,79.56
2023-10-15T21:24:50.097Z,80.90
2023-10-15T21:27:16.514Z,80.54
2023-10-15T21:29:43.756Z,79.81
2023-10-15T21:32:10.138Z,80.54
2023-10-15T21:34:36.560Z,80.19
2023-10-15T21:37:03.225Z,80.92
2023-10-15T21:39:29.614Z,80.87
2023-10-15T21:41:56.003Z,81.26
2023-10-15T21:44:22.395Z,81.45
2023-10-15T21:46:48.834Z,81.80
2023-10-15T21:49:15.754Z,80.17
2023-10-15T21:51:42.700Z,80.18
2023-10-15T21:54:10.853Z,80.52
2023-10-15T21:56:39.538Z,81.08
2023-10-15T21:59:06.114Z,81.52
2023-10-15T22:01:33.048Z,80.48
2023-10-15T22:03:59.618Z,79.83
2023-10-15T22:06:26.023Z,80.05
2023-10-15T22:08:52.987Z,80.51
2023-10-15T22:11:20.820Z,80.81
2023-10-15T22:13:48.201Z,79.67
2023-10-15T22:16:14.676Z,79.82
2023-10-15T22:18:41.306Z,79.41
2023-10-15T22:21:09.143Z,80.11
2023-10-15T22:23:37.931Z,80.83
2023-10-15T22:26:05.819Z,81.06
2023-10-15T22:28:32.414Z,80.15
2023-10-15T22:30:58.854Z,81.07
2023-10-15T22:33:29.479Z,80.86
2023-10-15T22:35:55.957Z,80.40
2023-10-15T22:38:22.290Z,80.11
2023-10-15T22:40:51.690Z,80.80
2023-10-15T22:43:21.707Z,81.12
2023-10-15T22:45:48.427Z,80.36
2023-10-15T22:48:16.951Z,80.40
2023-10-15T22:50:43.962Z,80.33
2023-10-15T22:53:12.545Z,80.53
2023-10-15T22:55:41.445Z,81.40
2023-10-15T22:58:07.969Z,81.63
2023-10-15T23:00:40.399Z,81.09
2023-10-15T23:03:07.691Z,80.84
2023-10-15T23:05:35.351Z,81.36
2023-10-15T23:08:02.582Z,81.82
2023-10-15T23:10:31.920Z,80.87
2023-10-15T23:12:58.302Z,81.46
2023-10-15T23:15:30.287Z,81.03
2023-10-15T23:17:59.785Z,80.32
2023-10-15T23:20:35.659Z,80.11
2023-10-15T23:23:06.666Z,80.25
2023-10-15T23:25:35.523Z,81.04
2023-10-15T23:28:14.085Z,79.83
2023-10-15T23:30:49.270Z,81.75
2023-10-15T23:33:16.918Z,80.66
2023-10-15T23:35:46.739Z,81.28
2023-10-15T23:38:13.535Z,81.57
2023-10-15T23:40:39.865Z,81.53
2023-10-15T23:43:06.188Z,81.50
2023-10-15T23:45:33.027Z,81.66
2023-10-15T23:48:15.068Z,80.55
2023-10-15T23:50:47.497Z,81.80
2023-10-15T23:53:20.908Z,82.55
2023-10-15T23:55:48.064Z,81.49
2023-10-15T23:58:14.430Z,80.99
